Accueil
METAR-TAF:

METAR-TAF

Aéroports :

Aéroport de Gênes-Christophe Colomb

Gênes, Italie

latitude: 44-25N, longitude: 008-51E, altitude: 2 m

Observation

Le bulletin a été fait il y a 28 minutes, à 20:20 UTC
Vent 14 kt de sud-est
Température 19°C
Humidité 83%
Pression 1014 hPa
Visibilité 10 km ou plus
Nuages épars à une hauteur de 2000 ft

METAR: LIMJ 222020Z 13014KT 9999 SCT020 19/16 Q1014

Heure: 22:48 (20:48 UTC)

Prévision

Le bulletin a été fait il y a 3 heures et 48 minutes, à 17:00 UTC
Prévision valable du 22 à 18 UTC au 23 à 18 UTC
Vent 18 kt de est/sud-est
Visibilité 10 km ou plus
Nuages épars à une hauteur de 3000 ft
Temporairement
du 23 à 11 UTC au 23 à 16 UTC
Visibilité: 4000 m
orage, pluie,

TAF: LIMJ 221700Z 2218/2318 12018KT 9999 SCT030 TEMPO 2311/2316 4000 TSRA

Observations et prévisions météorologiques de plus de 4000 aéroports (messages METAR et TAF).

Les stations disponibles sont représentées par des disques jaunes et rouges sur la carte.

Passer la souris dessus pour voir le nom de la station.

Cliquer dessus pour voir les observations et prévisions météorologiques.

Pour changer de carte: cliquez sur les boutons verts avec une croix noire pour zoomer, sur le bouton vert avec un tiret pour effectuer un zoom arrière, ou sur les flèches vertes pour les cartes adjacentes.


METAR-TAF: